createdAt,value
2018-12-30T00:00:22.897Z,89.24
2018-12-30T00:03:27.499Z,88.93
2018-12-30T00:06:32.242Z,87.82
2018-12-30T00:09:37.165Z,87.64
2018-12-30T00:12:44.386Z,86.36
2018-12-30T00:15:49.388Z,86.17
2018-12-30T00:18:56.283Z,85.72
2018-12-30T00:22:01.278Z,86.61
2018-12-30T00:25:06.888Z,87.65
2018-12-30T00:28:11.954Z,87.01
2018-12-30T00:31:16.884Z,87.21
2018-12-30T00:34:20.900Z,86.86
2018-12-30T00:37:25.586Z,86.59
2018-12-30T00:40:30.092Z,86.32
2018-12-30T00:43:35.045Z,85.75
2018-12-30T00:46:40.214Z,85.54
2018-12-30T00:49:44.432Z,85.78
2018-12-30T00:52:48.281Z,85.77
2018-12-30T00:55:52.359Z,86.34
2018-12-30T00:58:56.218Z,85.88
2018-12-30T01:02:00.060Z,86.29
2018-12-30T01:05:03.997Z,86.31
2018-12-30T01:08:07.929Z,86.87
2018-12-30T01:11:11.791Z,87.13
2018-12-30T01:14:15.653Z,87.52
2018-12-30T01:17:19.660Z,87.63
2018-12-30T01:20:23.602Z,87.49
2018-12-30T01:23:27.462Z,87.17
2018-12-30T01:26:31.596Z,86.85
2018-12-30T01:29:35.804Z,86.57
2018-12-30T01:32:39.676Z,86.97
2018-12-30T01:35:43.529Z,87.03
2018-12-30T01:38:47.374Z,86.51
2018-12-30T01:41:51.257Z,86.14
2018-12-30T01:44:55.120Z,85.63
2018-12-30T01:47:59.417Z,85.58
2018-12-30T01:51:03.282Z,85.36
2018-12-30T01:54:07.134Z,85.30
2018-12-30T01:57:11.049Z,85.70
2018-12-30T02:00:14.953Z,85.73
2018-12-30T02:03:18.902Z,85.77
2018-12-30T02:06:23.225Z,86.00
2018-12-30T02:09:27.169Z,86.16
2018-12-30T02:12:33.128Z,86.09
2018-12-30T02:15:37.112Z,86.90
2018-12-30T02:18:40.973Z,87.46
2018-12-30T02:21:44.902Z,87.81
2018-12-30T02:24:48.822Z,87.94
2018-12-30T02:27:52.720Z,88.07
2018-12-30T02:30:58.653Z,88.40
2018-12-30T02:34:02.539Z,88.60
2018-12-30T02:37:06.423Z,88.35
2018-12-30T02:40:10.311Z,88.02
2018-12-30T02:43:15.325Z,87.87
2018-12-30T02:46:19.221Z,87.91
2018-12-30T02:49:23.195Z,87.73
2018-12-30T02:52:27.447Z,87.30
2018-12-30T02:55:31.330Z,87.45
2018-12-30T02:58:38.713Z,88.11
2018-12-30T03:01:42.583Z,88.17
2018-12-30T03:04:46.898Z,88.52
2018-12-30T03:07:51.052Z,88.58
2018-12-30T03:10:55.074Z,88.06
2018-12-30T03:13:59.248Z,88.05
2018-12-30T03:17:03.197Z,87.96
2018-12-30T03:20:07.236Z,87.77
2018-12-30T03:23:14.179Z,87.44
2018-12-30T03:26:18.043Z,87.75
2018-12-30T03:29:22.057Z,87.61
2018-12-30T03:32:25.916Z,87.68
2018-12-30T03:35:29.784Z,87.65
2018-12-30T03:38:33.816Z,87.51
2018-12-30T03:41:37.725Z,87.71
2018-12-30T03:44:41.582Z,87.76
2018-12-30T03:47:45.473Z,87.49
2018-12-30T03:50:49.397Z,87.33
2018-12-30T03:53:53.267Z,87.25
2018-12-30T03:56:57.218Z,87.11
2018-12-30T04:00:01.102Z,87.09
2018-12-30T04:03:05.075Z,87.22
2018-12-30T04:06:08.998Z,87.27
2018-12-30T04:09:13.015Z,87.34
2018-12-30T04:12:16.889Z,87.57
2018-12-30T04:15:20.737Z,87.79
2018-12-30T04:18:26.257Z,86.96
2018-12-30T04:21:32.959Z,86.73
2018-12-30T04:24:36.805Z,86.69
2018-12-30T04:27:40.741Z,86.60
2018-12-30T04:30:44.686Z,86.84
2018-12-30T04:33:48.628Z,86.67
2018-12-30T04:36:52.507Z,86.68
2018-12-30T04:39:56.377Z,86.48
2018-12-30T04:43:00.270Z,86.39
2018-12-30T04:46:04.329Z,86.20
2018-12-30T04:49:08.315Z,86.78
2018-12-30T04:52:12.249Z,86.81
2018-12-30T04:55:16.119Z,86.90
2018-12-30T04:58:20.002Z,86.24
2018-12-30T05:01:23.881Z,86.71
2018-12-30T05:04:27.848Z,86.20
2018-12-30T05:07:31.791Z,86.40
2018-12-30T05:10:35.705Z,86.61
2018-12-30T05:13:39.631Z,86.93
2018-12-30T05:16:43.499Z,87.22
2018-12-30T05:19:47.365Z,87.60
2018-12-30T05:22:54.035Z,87.39
2018-12-30T05:25:57.955Z,87.44
2018-12-30T05:29:01.840Z,87.48
2018-12-30T05:32:05.747Z,87.39
2018-12-30T05:35:09.681Z,87.60
2018-12-30T05:38:13.696Z,87.42
2018-12-30T05:41:17.558Z,87.32
2018-12-30T05:44:21.436Z,87.00
2018-12-30T05:47:25.327Z,86.96
2018-12-30T05:50:29.234Z,87.02
2018-12-30T05:53:33.359Z,86.88
2018-12-30T05:56:37.499Z,86.78
2018-12-30T05:59:43.567Z,86.96
2018-12-30T06:02:48.608Z,86.56
2018-12-30T06:05:52.503Z,86.45
2018-12-30T06:08:56.426Z,85.84
2018-12-30T06:12:00.281Z,85.68
2018-12-30T06:15:04.277Z,86.16
2018-12-30T06:18:08.213Z,86.82
2018-12-30T06:21:12.195Z,87.50
2018-12-30T06:24:16.184Z,87.79
2018-12-30T06:27:20.027Z,88.01
2018-12-30T06:30:23.913Z,88.25
2018-12-30T06:33:27.778Z,88.33
2018-12-30T06:36:31.658Z,88.57
2018-12-30T06:39:35.613Z,88.68
2018-12-30T06:42:39.492Z,88.82
2018-12-30T06:45:43.457Z,89.16
2018-12-30T06:48:47.477Z,89.18
2018-12-30T06:51:51.338Z,89.46
2018-12-30T06:54:55.212Z,89.64
2018-12-30T06:57:59.081Z,89.80
2018-12-30T07:01:02.977Z,89.99
2018-12-30T07:04:08.668Z,90.02
2018-12-30T07:07:12.562Z,90.11
2018-12-30T07:10:16.491Z,90.14
2018-12-30T07:13:20.448Z,89.95
2018-12-30T07:16:24.401Z,90.16
2018-12-30T07:19:30.649Z,90.19
2018-12-30T07:22:34.524Z,90.19
2018-12-30T07:25:38.483Z,90.31
2018-12-30T07:28:42.384Z,90.66
2018-12-30T07:31:46.358Z,91.21
2018-12-30T07:34:50.297Z,91.00
2018-12-30T07:37:54.185Z,90.99
2018-12-30T07:40:58.130Z,90.96
2018-12-30T07:44:04.048Z,90.78
2018-12-30T07:47:07.911Z,90.53
2018-12-30T07:50:11.848Z,89.96
2018-12-30T07:53:15.731Z,89.63
2018-12-30T07:56:19.586Z,89.35
2018-12-30T07:59:23.461Z,89.19
2018-12-30T08:02:27.418Z,89.14
2018-12-30T08:05:31.276Z,89.52
2018-12-30T08:08:35.247Z,89.83
2018-12-30T08:11:39.094Z,89.86
2018-12-30T08:14:43.159Z,90.16
2018-12-30T08:17:47.122Z,90.13
2018-12-30T08:20:51.022Z,90.30
2018-12-30T08:23:54.888Z,90.64
2018-12-30T08:26:59.945Z,90.71
2018-12-30T08:30:03.951Z,91.00
2018-12-30T08:33:07.803Z,91.15
2018-12-30T08:36:11.738Z,91.51
2018-12-30T08:39:18.659Z,91.93
2018-12-30T08:42:22.593Z,91.99
2018-12-30T08:45:26.588Z,91.99
2018-12-30T08:48:30.583Z,91.71
2018-12-30T08:51:34.500Z,91.50
2018-12-30T08:54:38.386Z,91.35
2018-12-30T08:57:44.687Z,91.12
2018-12-30T09:00:48.831Z,90.98
2018-12-30T09:03:54.625Z,91.08
2018-12-30T09:06:58.446Z,91.02
2018-12-30T09:10:02.432Z,91.09
2018-12-30T09:13:06.302Z,90.98
2018-12-30T09:16:10.184Z,90.13
2018-12-30T09:19:14.018Z,89.97
2018-12-30T09:22:18.055Z,89.47
2018-12-30T09:25:21.916Z,89.48
2018-12-30T09:28:27.588Z,89.50
2018-12-30T09:31:34.787Z,89.61
2018-12-30T09:34:43.086Z,89.75
2018-12-30T09:37:46.942Z,90.10
2018-12-30T09:40:53.097Z,90.30
2018-12-30T09:43:57.125Z,90.24
2018-12-30T09:47:01.065Z,90.14
2018-12-30T09:50:05.246Z,90.11
2018-12-30T09:53:11.171Z,89.85
2018-12-30T09:56:15.262Z,89.48
2018-12-30T09:59:19.141Z,89.49
2018-12-30T10:02:22.990Z,89.78
2018-12-30T10:05:29.070Z,89.76
2018-12-30T10:08:32.986Z,89.49
2018-12-30T10:11:37.754Z,89.09
2018-12-30T10:14:41.883Z,88.63
2018-12-30T10:17:45.962Z,88.06
2018-12-30T10:20:49.838Z,87.75
2018-12-30T10:23:54.315Z,87.81
2018-12-30T10:26:58.161Z,87.55
2018-12-30T10:30:02.016Z,87.48
2018-12-30T10:33:06.027Z,87.08
2018-12-30T10:36:10.865Z,86.40
2018-12-30T10:39:14.719Z,85.94
2018-12-30T10:42:18.644Z,85.61
2018-12-30T10:45:24.165Z,86.23
2018-12-30T10:48:28.068Z,86.18
2018-12-30T10:51:31.944Z,85.83
2018-12-30T10:54:35.872Z,85.34
2018-12-30T10:57:39.736Z,85.40
2018-12-30T11:00:43.643Z,84.81
2018-12-30T11:03:47.511Z,85.01
2018-12-30T11:06:51.465Z,84.56
2018-12-30T11:09:55.329Z,84.18
2018-12-30T11:12:59.188Z,83.79
2018-12-30T11:16:03.044Z,83.33
2018-12-30T11:19:06.978Z,83.18
2018-12-30T11:22:10.834Z,82.93
2018-12-30T11:25:14.760Z,83.33
2018-12-30T11:28:19.003Z,83.27
2018-12-30T11:31:22.972Z,83.14
2018-12-30T11:34:26.897Z,82.90
2018-12-30T11:37:30.751Z,82.49
2018-12-30T11:40:34.695Z,82.43
2018-12-30T11:43:38.568Z,82.26
2018-12-30T11:46:42.521Z,82.09
2018-12-30T11:49:46.447Z,82.29
2018-12-30T11:52:50.299Z,82.46
2018-12-30T11:55:54.250Z,82.42
2018-12-30T11:58:58.170Z,82.38
2018-12-30T12:02:02.032Z,82.33
2018-12-30T12:05:06.099Z,82.29
2018-12-30T12:08:11.932Z,82.05
2018-12-30T12:11:15.790Z,81.36
2018-12-30T12:14:19.631Z,81.39
2018-12-30T12:17:23.687Z,81.18
2018-12-30T12:20:27.564Z,81.44
2018-12-30T12:23:31.510Z,81.51
2018-12-30T12:26:35.433Z,81.85
2018-12-30T12:29:39.326Z,81.77
2018-12-30T12:32:43.173Z,81.81
2018-12-30T12:35:47.036Z,81.66
2018-12-30T12:38:50.942Z,81.34
2018-12-30T12:41:54.891Z,81.00
2018-12-30T12:44:58.900Z,81.20
2018-12-30T12:48:02.832Z,81.61
2018-12-30T12:51:06.846Z,81.24
2018-12-30T12:54:14.517Z,81.70
2018-12-30T12:57:18.643Z,81.60
2018-12-30T13:00:23.114Z,82.27
2018-12-30T13:03:27.235Z,82.17
2018-12-30T13:06:31.160Z,82.13
2018-12-30T13:09:35.034Z,82.01
2018-12-30T13:12:42.247Z,81.80
2018-12-30T13:15:46.227Z,81.91
2018-12-30T13:18:50.234Z,81.98
2018-12-30T13:21:54.086Z,82.55
2018-12-30T13:25:00.850Z,82.70
2018-12-30T13:28:04.767Z,82.84
2018-12-30T13:31:08.623Z,82.67
2018-12-30T13:34:12.487Z,83.27
2018-12-30T13:37:16.423Z,83.50
2018-12-30T13:40:20.429Z,83.56
2018-12-30T13:43:24.928Z,83.65
2018-12-30T13:46:31.082Z,83.70
2018-12-30T13:49:34.943Z,83.97
2018-12-30T13:52:38.950Z,84.40
2018-12-30T13:55:42.858Z,84.61
2018-12-30T13:58:46.714Z,84.59
2018-12-30T14:01:50.566Z,85.04
2018-12-30T14:04:54.514Z,85.13
2018-12-30T14:07:58.462Z,85.48
2018-12-30T14:11:02.621Z,85.74
2018-12-30T14:14:07.824Z,85.83
2018-12-30T14:17:19.099Z,86.04
2018-12-30T14:20:23.767Z,86.21
2018-12-30T14:23:27.796Z,86.23
2018-12-30T14:26:35.256Z,86.58
2018-12-30T14:29:39.112Z,86.59
2018-12-30T14:32:43.140Z,86.28
2018-12-30T14:35:47.062Z,86.29
2018-12-30T14:38:50.996Z,85.81
2018-12-30T14:41:54.935Z,85.90
2018-12-30T14:44:58.886Z,86.04
2018-12-30T14:48:03.013Z,86.20
2018-12-30T14:51:06.947Z,86.39
2018-12-30T14:54:10.802Z,86.49
2018-12-30T14:57:14.683Z,86.71
2018-12-30T15:00:20.915Z,86.81
2018-12-30T15:03:24.997Z,86.84
2018-12-30T15:06:28.851Z,86.84
2018-12-30T15:09:35.915Z,86.96
2018-12-30T15:12:38.400Z,87.19
2018-12-30T15:15:42.238Z,87.20
2018-12-30T15:18:47.586Z,87.18
2018-12-30T15:21:51.601Z,87.51
2018-12-30T15:24:55.568Z,87.92
2018-12-30T15:27:59.529Z,88.10
2018-12-30T15:31:03.671Z,88.30
2018-12-30T15:34:07.587Z,88.61
2018-12-30T15:37:11.650Z,88.82
2018-12-30T15:40:15.637Z,89.27
2018-12-30T15:43:19.558Z,89.45
2018-12-30T15:46:23.536Z,89.60
2018-12-30T15:49:27.646Z,89.77
2018-12-30T15:52:31.810Z,89.88
2018-12-30T15:55:35.700Z,90.02
2018-12-30T15:58:39.853Z,90.38
2018-12-30T16:01:43.856Z,90.35
2018-12-30T16:04:47.885Z,90.43
2018-12-30T16:07:51.909Z,90.31
2018-12-30T16:10:56.099Z,90.57
2018-12-30T16:14:00.399Z,90.45
2018-12-30T16:17:04.541Z,90.15
2018-12-30T16:20:11.877Z,89.97
2018-12-30T16:23:15.948Z,89.97
2018-12-30T16:26:20.610Z,89.89
2018-12-30T16:29:24.461Z,90.05
2018-12-30T16:32:28.367Z,90.16
2018-12-30T16:35:32.436Z,90.36
2018-12-30T16:38:36.440Z,90.32
2018-12-30T16:41:40.516Z,90.47
2018-12-30T16:44:44.514Z,91.26
2018-12-30T16:47:48.578Z,91.21
2018-12-30T16:50:52.638Z,91.49
2018-12-30T16:53:56.709Z,91.54
2018-12-30T16:57:00.883Z,91.54
2018-12-30T17:00:06.222Z,91.71
2018-12-30T17:03:10.328Z,91.71
2018-12-30T17:06:14.569Z,91.78
2018-12-30T17:09:18.592Z,91.71
2018-12-30T17:12:22.575Z,91.84
2018-12-30T17:15:26.716Z,92.02
2018-12-30T17:18:30.732Z,92.28
2018-12-30T17:21:36.431Z,92.31
2018-12-30T17:24:40.396Z,92.24
2018-12-30T17:27:44.388Z,92.21
2018-12-30T17:30:48.629Z,92.16
2018-12-30T17:33:52.641Z,92.09
2018-12-30T17:36:56.621Z,92.09
2018-12-30T17:40:00.653Z,92.03
2018-12-30T17:43:04.789Z,92.08
2018-12-30T17:46:08.885Z,92.05
2018-12-30T17:49:12.895Z,91.97
2018-12-30T17:52:16.993Z,92.02
2018-12-30T17:55:21.123Z,92.06
2018-12-30T17:58:25.098Z,92.09
2018-12-30T18:01:29.071Z,92.18
2018-12-30T18:04:33.037Z,92.25
2018-12-30T18:07:37.044Z,92.38
2018-12-30T18:10:41.189Z,92.39
2018-12-30T18:13:45.093Z,92.39
2018-12-30T18:16:49.207Z,92.33
2018-12-30T18:19:53.300Z,92.33
2018-12-30T18:22:57.324Z,92.25
2018-12-30T18:26:01.355Z,92.21
2018-12-30T18:29:05.433Z,92.26
2018-12-30T18:32:09.740Z,92.26
2018-12-30T18:35:14.158Z,92.25
2018-12-30T18:38:18.180Z,92.34
2018-12-30T18:41:22.606Z,92.36
2018-12-30T18:44:26.747Z,92.49
2018-12-30T18:47:30.727Z,92.46
2018-12-30T18:50:35.201Z,92.47
2018-12-30T18:53:39.553Z,92.54
2018-12-30T18:56:43.784Z,92.57
2018-12-30T18:59:48.128Z,92.71
2018-12-30T19:02:52.188Z,92.70
2018-12-30T19:05:56.199Z,92.66
2018-12-30T19:09:00.762Z,92.75
2018-12-30T19:12:05.873Z,93.20
2018-12-30T19:15:10.441Z,93.23
2018-12-30T19:18:14.574Z,93.46
2018-12-30T19:21:18.607Z,93.55
2018-12-30T19:24:25.305Z,93.59
2018-12-30T19:27:29.481Z,93.73
2018-12-30T19:30:34.668Z,93.64
2018-12-30T19:33:38.882Z,93.61
2018-12-30T19:36:43.296Z,93.60
2018-12-30T19:39:47.673Z,93.51
2018-12-30T19:42:51.921Z,93.83
2018-12-30T19:45:57.127Z,93.98
2018-12-30T19:49:01.365Z,94.09
2018-12-30T19:52:05.426Z,94.24
2018-12-30T19:55:09.675Z,94.09
2018-12-30T19:58:14.325Z,94.02
2018-12-30T20:01:18.630Z,94.04
2018-12-30T20:04:25.707Z,94.19
2018-12-30T20:07:30.205Z,94.25
2018-12-30T20:10:35.442Z,94.41
2018-12-30T20:13:40.187Z,94.39
2018-12-30T20:16:47.068Z,94.47
2018-12-30T20:19:51.394Z,94.51
2018-12-30T20:22:55.748Z,94.54
2018-12-30T20:26:00.233Z,94.49
2018-12-30T20:29:04.241Z,94.37
2018-12-30T20:32:08.429Z,94.32
2018-12-30T20:35:12.887Z,94.21
2018-12-30T20:38:17.470Z,94.15
2018-12-30T20:41:21.708Z,94.02
2018-12-30T20:44:27.928Z,93.91
2018-12-30T20:47:32.140Z,93.76
2018-12-30T20:50:36.372Z,93.73
2018-12-30T20:53:40.828Z,93.66
2018-12-30T20:56:44.922Z,93.66
2018-12-30T20:59:50.819Z,93.64
2018-12-30T21:02:55.159Z,93.67
2018-12-30T21:05:59.191Z,93.64
2018-12-30T21:09:03.349Z,93.70
2018-12-30T21:12:09.283Z,93.73
2018-12-30T21:15:14.698Z,93.84
2018-12-30T21:18:18.841Z,93.87
2018-12-30T21:21:22.850Z,93.89
2018-12-30T21:24:26.936Z,93.93
2018-12-30T21:27:30.954Z,93.83
2018-12-30T21:30:34.847Z,93.86
2018-12-30T21:33:38.705Z,93.88
2018-12-30T21:36:43.804Z,93.86
2018-12-30T21:39:47.779Z,93.84
2018-12-30T21:42:51.787Z,93.87
2018-12-30T21:45:55.857Z,93.87
2018-12-30T21:48:59.843Z,93.88
2018-12-30T21:52:03.899Z,93.87
2018-12-30T21:55:07.919Z,93.85
2018-12-30T21:58:12.210Z,93.83
2018-12-30T22:01:16.069Z,93.81
2018-12-30T22:04:20.018Z,93.78
2018-12-30T22:07:23.983Z,93.78
2018-12-30T22:10:27.874Z,93.75
2018-12-30T22:13:31.811Z,93.68
2018-12-30T22:16:35.676Z,93.61
2018-12-30T22:19:39.527Z,93.67
2018-12-30T22:22:43.462Z,93.69
2018-12-30T22:25:47.395Z,93.68
2018-12-30T22:28:51.318Z,93.74
2018-12-30T22:31:58.270Z,93.72
2018-12-30T22:35:02.135Z,93.74
2018-12-30T22:38:06.010Z,93.80
2018-12-30T22:41:09.914Z,93.83
2018-12-30T22:44:13.984Z,93.83
2018-12-30T22:47:18.003Z,93.85
2018-12-30T22:50:21.985Z,93.86
2018-12-30T22:53:25.840Z,93.92
2018-12-30T22:56:29.741Z,94.15
2018-12-30T22:59:33.706Z,94.24
2018-12-30T23:02:37.563Z,94.25
2018-12-30T23:05:41.539Z,94.22
2018-12-30T23:08:45.449Z,94.26
2018-12-30T23:11:49.306Z,94.25
2018-12-30T23:14:53.315Z,94.28
2018-12-30T23:17:57.174Z,94.33
2018-12-30T23:21:01.106Z,94.28
2018-12-30T23:24:05.051Z,94.25
2018-12-30T23:27:09.927Z,94.39
2018-12-30T23:30:14.128Z,94.44
2018-12-30T23:33:18.075Z,94.45
2018-12-30T23:36:21.954Z,94.49
2018-12-30T23:39:25.958Z,94.50
2018-12-30T23:42:29.898Z,94.49
2018-12-30T23:45:34.000Z,94.55
2018-12-30T23:48:37.920Z,94.60
2018-12-30T23:51:41.780Z,94.64
2018-12-30T23:54:45.687Z,94.63
2018-12-30T23:57:49.544Z,94.60
